This is the latest recevied weather packets stored in our database for station/object K2ATL. If no packets are shown the sender has not sent any weather packets the latest 10 day(s).
| Time | Temp. | Humidity | Pressure | Rain* | Wind** | Luminosity | Snow |
|---|---|---|---|---|---|---|---|
| 1788033986 | 25° C | 83% | 1106.5 hPa | 0 mm | - | 118 W/m² | - |
| 1788033681 | 25° C | 83% | 1106.4 hPa | 0 mm | - | 131 W/m² | - |
| 1788033380 | 25° C | 83% | 1106.7 hPa | 0 mm | - | 149 W/m² | - |
| 1788033076 | 25° C | 84% | 1106.7 hPa | 0 mm | - | 113 W/m² | - |
| 1788032775 | 25.56° C | 82% | 1106.7 hPa | 0 mm | - | 91 W/m² | - |
| 1788032470 | 25° C | 84% | 1106.6 hPa | 0 mm | - | 103 W/m² | - |
| 1788032166 | 25.56° C | 80% | 1106.6 hPa | 0 mm | - | 99 W/m² | - |
| 1788031863 | 26.11° C | 82% | 1106.7 hPa | 0 mm | - | 84 W/m² | - |
| 1788031561 | 26.11° C | 82% | 1106.8 hPa | 0 mm | - | 107 W/m² | - |
| 1788031261 | 26.67° C | 78% | 1106.8 hPa | 0 mm | - | 99 W/m² | - |
| 1788030961 | 27.78° C | 76% | 1106.9 hPa | 0 mm | - | 128 W/m² | - |
| 1788030661 | 27.78° C | 73% | 1106.8 hPa | 0 mm | - | 136 W/m² | - |
| 1788030356 | 27.78° C | 73% | 1106.8 hPa | 0 mm | - | 156 W/m² | - |
| 1788030052 | 27.78° C | 73% | 1107 hPa | 0 mm | - | 214 W/m² | - |
| 1788029751 | 27.78° C | 72% | 1106.9 hPa | 0 mm | - | 183 W/m² | - |
| 1788029447 | 28.33° C | 68% | 1107.1 hPa | 0 mm | - | 201 W/m² | - |
| 1788029146 | 26.11° C | 72% | 1106.9 hPa | 0 mm | - | 605 W/m² | - |
| 1788028845 | 27.78° C | 68% | 1107.1 hPa | 0 mm | - | 251 W/m² | - |
| 1788028545 | 27.78° C | 64% | 1107.1 hPa | 0 mm | - | 1029 W/m² | - |
| 1788028241 | 27.78° C | 68% | 1107.4 hPa | 0 mm | - | 249 W/m² | - |
| 1788027937 | 28.89° C | 69% | 1107.4 hPa | 0 mm | - | 215 W/m² | - |
| 1788027631 | 28.89° C | 65% | 1107.2 hPa | 0 mm | - | 374 W/m² | - |
| 1788027326 | 27.78° C | 64% | 1107.2 hPa | 0 mm | - | 617 W/m² | - |
| 1788027025 | 27.22° C | 66% | 1107.4 hPa | 0 mm | - | 977 W/m² | - |
| 1788026725 | 28.33° C | 64% | 1107.6 hPa | 0 mm | - | 276 W/m² | - |
* Rain latest hour (hover to see other rain measurements)
** Current wind speed in m/s (hover to see current wind gust speed)